createdAt,value
2018-11-05T00:01:21.168Z,98487.74
2018-11-05T00:03:49.492Z,98485.08
2018-11-05T00:06:17.799Z,98473.38
2018-11-05T00:08:46.223Z,98482.91
2018-11-05T00:11:14.611Z,98492.03
2018-11-05T00:13:42.939Z,98489.71
2018-11-05T00:16:11.387Z,98490.00
2018-11-05T00:18:39.683Z,98486.20
2018-11-05T00:21:08.018Z,98495.53
2018-11-05T00:23:36.329Z,98496.72
2018-11-05T00:26:04.688Z,98491.05
2018-11-05T00:28:32.983Z,98493.56
2018-11-05T00:31:01.363Z,98501.70
2018-11-05T00:33:29.653Z,98505.06
2018-11-05T00:35:58.036Z,98506.75
2018-11-05T00:38:26.345Z,98507.37
2018-11-05T00:40:54.675Z,98499.09
2018-11-05T00:43:23.016Z,98492.58
2018-11-05T00:45:51.507Z,98488.52
2018-11-05T00:48:19.683Z,98479.05
2018-11-05T00:50:48.020Z,98480.80
2018-11-05T00:53:16.442Z,98477.02
2018-11-05T00:55:45.219Z,98489.71
2018-11-05T00:58:13.633Z,98493.56
2018-11-05T01:00:41.929Z,98470.50
2018-11-05T01:03:10.237Z,98480.59
2018-11-05T01:05:38.564Z,98484.09
2018-11-05T01:08:06.963Z,98483.45
2018-11-05T01:10:35.284Z,98479.17
2018-11-05T01:13:03.562Z,98478.97
2018-11-05T01:15:31.987Z,98478.62
2018-11-05T01:18:00.376Z,98477.84
2018-11-05T01:20:28.702Z,98480.39
2018-11-05T01:22:57.004Z,98480.39
2018-11-05T01:25:25.378Z,98474.33
2018-11-05T01:27:53.726Z,98468.86
2018-11-05T01:30:22.037Z,98468.11
2018-11-05T01:32:50.326Z,98467.47
2018-11-05T01:35:18.788Z,98469.73
2018-11-05T01:37:47.160Z,98469.59
2018-11-05T01:40:16.022Z,98462.78
2018-11-05T01:42:44.589Z,98452.90
2018-11-05T01:45:13.918Z,98449.80
2018-11-05T01:47:42.976Z,98446.29
2018-11-05T01:50:13.222Z,98438.70
2018-11-05T01:52:42.081Z,98426.16
2018-11-05T01:55:10.786Z,98416.19
2018-11-05T01:57:39.758Z,98412.91
2018-11-05T02:00:10.273Z,98408.42
2018-11-05T02:02:38.722Z,98399.20
2018-11-05T02:05:08.078Z,98404.34
2018-11-05T02:07:36.355Z,98391.36
2018-11-05T02:10:07.349Z,98392.05
2018-11-05T02:12:35.690Z,98390.17
2018-11-05T02:15:04.088Z,98392.63
2018-11-05T02:17:32.408Z,98392.48
2018-11-05T02:20:00.698Z,98384.53
2018-11-05T02:22:29.380Z,98383.06
2018-11-05T02:24:57.770Z,98378.72
2018-11-05T02:27:26.316Z,98373.19
2018-11-05T02:29:54.622Z,98378.63
2018-11-05T02:32:22.969Z,98372.58
2018-11-05T02:34:51.246Z,98377.29
2018-11-05T02:37:19.559Z,98377.23
2018-11-05T02:39:47.879Z,98376.89
2018-11-05T02:42:16.234Z,98375.27
2018-11-05T02:44:44.774Z,98359.91
2018-11-05T02:47:13.105Z,98362.63
2018-11-05T02:49:41.476Z,98361.05
2018-11-05T02:52:09.807Z,98352.45
2018-11-05T02:54:38.095Z,98355.56
2018-11-05T02:57:06.551Z,98357.55
2018-11-05T02:59:34.846Z,98365.69
2018-11-05T03:02:03.150Z,98362.97
2018-11-05T03:04:31.465Z,98367.22
2018-11-05T03:06:59.786Z,98368.20
2018-11-05T03:09:28.094Z,98361.54
2018-11-05T03:11:56.389Z,98364.50
2018-11-05T03:14:24.840Z,98367.86
2018-11-05T03:16:53.266Z,98370.97
2018-11-05T03:19:21.580Z,98369.17
2018-11-05T03:21:50.011Z,98365.73
2018-11-05T03:24:18.342Z,98360.84
2018-11-05T03:26:46.675Z,98356.80
2018-11-05T03:29:15.023Z,98361.20
2018-11-05T03:31:43.351Z,98362.18
2018-11-05T03:34:11.627Z,98373.68
2018-11-05T03:36:39.953Z,98367.16
2018-11-05T03:39:10.400Z,98356.02
2018-11-05T03:41:40.016Z,98356.16
2018-11-05T03:44:08.802Z,98360.11
2018-11-05T03:46:37.496Z,98356.75
2018-11-05T03:49:06.464Z,98356.36
2018-11-05T03:51:34.987Z,98353.34
2018-11-05T03:54:03.431Z,98339.33
2018-11-05T03:56:31.861Z,98336.86
2018-11-05T03:59:00.275Z,98338.83
2018-11-05T04:01:28.618Z,98339.13
2018-11-05T04:03:56.945Z,98357.78
2018-11-05T04:06:25.275Z,98348.11
2018-11-05T04:08:53.554Z,98351.12
2018-11-05T04:11:21.914Z,98354.58
2018-11-05T04:13:50.249Z,98347.37
2018-11-05T04:16:18.641Z,98343.12
2018-11-05T04:18:47.060Z,98347.39
2018-11-05T04:21:15.437Z,98351.62
2018-11-05T04:23:43.762Z,98350.14
2018-11-05T04:26:12.095Z,98342.05
2018-11-05T04:28:40.531Z,98330.48
2018-11-05T04:31:08.848Z,98326.91
2018-11-05T04:33:37.158Z,98327.40
2018-11-05T04:36:05.850Z,98329.30
2018-11-05T04:39:15.913Z,98325.50
2018-11-05T04:41:45.672Z,98330.64
2018-11-05T04:44:16.870Z,98314.35
2018-11-05T04:46:45.196Z,98315.19
2018-11-05T04:49:13.522Z,98302.80
2018-11-05T04:51:41.881Z,98301.81
2018-11-05T04:54:10.218Z,98300.33
2018-11-05T04:56:38.554Z,98291.05
2018-11-05T04:59:07.491Z,98278.22
2018-11-05T05:01:35.854Z,98283.25
2018-11-05T05:04:04.205Z,98288.23
2018-11-05T05:06:32.491Z,98286.70
2018-11-05T05:09:00.804Z,98304.48
2018-11-05T05:11:29.217Z,98300.83
2018-11-05T05:13:57.548Z,98294.80
2018-11-05T05:16:25.947Z,98284.98
2018-11-05T05:18:54.178Z,98268.99
2018-11-05T05:21:22.515Z,98273.68
2018-11-05T05:23:50.913Z,98276.84
2018-11-05T05:26:19.343Z,98283.50
2018-11-05T05:28:47.697Z,98278.02
2018-11-05T05:31:16.026Z,98277.10
2018-11-05T05:33:44.372Z,98277.10
2018-11-05T05:36:12.973Z,98284.98
2018-11-05T05:38:41.279Z,98283.25
2018-11-05T05:41:09.770Z,98292.88
2018-11-05T05:43:38.174Z,98294.85
2018-11-05T05:46:06.557Z,98313.16
2018-11-05T05:48:35.043Z,98312.82
2018-11-05T05:51:03.358Z,98317.51
2018-11-05T05:53:31.771Z,98323.48
2018-11-05T05:56:00.111Z,98327.23
2018-11-05T05:58:28.482Z,98332.91
2018-11-05T06:00:56.838Z,98328.86
2018-11-05T06:03:25.176Z,98333.55
2018-11-05T06:05:56.264Z,98323.58
2018-11-05T06:08:25.506Z,98318.30
2018-11-05T06:10:54.521Z,98314.14
2018-11-05T06:13:23.003Z,98317.30
2018-11-05T06:15:51.382Z,98314.59
2018-11-05T06:18:19.674Z,98318.89
2018-11-05T06:20:47.942Z,98310.03
2018-11-05T06:23:16.444Z,98313.11
2018-11-05T06:25:44.838Z,98315.48
2018-11-05T06:28:13.217Z,98315.41
2018-11-05T06:30:41.803Z,98309.38
2018-11-05T06:33:10.353Z,98305.58
2018-11-05T06:35:38.637Z,98297.66
2018-11-05T06:38:06.963Z,98294.77
2018-11-05T06:40:35.409Z,98303.45
2018-11-05T06:43:03.782Z,98296.48
2018-11-05T06:45:32.187Z,98301.52
2018-11-05T06:48:00.416Z,98311.20
2018-11-05T06:50:28.781Z,98306.47
2018-11-05T06:52:57.156Z,98306.16
2018-11-05T07:29:57.532Z,98306.32
2018-11-05T07:32:25.838Z,98303.92
2018-11-05T07:34:56.226Z,98300.71
2018-11-05T07:37:25.925Z,98297.97
2018-11-05T07:39:54.385Z,98301.14
2018-11-05T07:42:22.866Z,98307.50
2018-11-05T07:44:51.227Z,98300.41
2018-11-05T07:47:19.588Z,98306.81
2018-11-05T07:49:52.209Z,98296.83
2018-11-05T07:52:20.618Z,98287.22
2018-11-05T07:54:49.201Z,98278.68
2018-11-05T07:57:17.528Z,98275.49
2018-11-05T07:59:46.175Z,98272.08
2018-11-05T08:02:15.012Z,98269.81
2018-11-05T08:04:45.712Z,98268.81
2018-11-05T08:07:14.667Z,98279.37
2018-11-05T08:09:43.129Z,98284.77
2018-11-05T08:12:11.608Z,98282.07
2018-11-05T08:15:01.325Z,98282.56
2018-11-05T08:17:39.797Z,98282.25
2018-11-05T08:20:14.293Z,98288.94
2018-11-05T08:22:45.159Z,98283.75
2018-11-05T08:25:14.302Z,98288.09
2018-11-05T08:30:33.613Z,98290.83
2018-11-05T08:33:19.335Z,98296.69
2018-11-05T08:35:54.207Z,98296.41
2018-11-05T08:38:24.821Z,98285.75
2018-11-05T08:40:59.156Z,98277.23
2018-11-05T08:43:27.475Z,98283.13
2018-11-05T08:46:01.358Z,98278.67
2018-11-05T08:48:29.892Z,98290.65
2018-11-05T08:51:09.452Z,98277.66
2018-11-05T08:53:46.497Z,98276.50
2018-11-05T08:58:58.871Z,98282.14
2018-11-05T09:01:45.289Z,98275.11
2018-11-05T09:04:19.583Z,98274.45
2018-11-05T09:06:57.299Z,98288.84
2018-11-05T09:09:32.273Z,98293.23
2018-11-05T09:12:16.368Z,98295.10
2018-11-05T09:17:49.895Z,98294.60
2018-11-05T09:21:22.016Z,98292.23
2018-11-05T09:23:52.594Z,98287.17
2018-11-05T09:26:28.668Z,98287.74
2018-11-05T09:28:59.983Z,98279.70
2018-11-05T09:31:34.263Z,98279.47
2018-11-05T09:34:02.717Z,98286.88
2018-11-05T09:36:49.157Z,98286.23
2018-11-05T09:39:17.533Z,98268.53
2018-11-05T09:41:45.860Z,98258.88
2018-11-05T09:44:29.765Z,98261.87
2018-11-05T09:47:01.131Z,98268.95
2018-11-05T09:49:42.029Z,98262.95
2018-11-05T09:52:30.370Z,98266.64
2018-11-05T09:55:21.547Z,98268.50
2018-11-05T10:01:18.930Z,98259.36
2018-11-05T10:04:01.591Z,98261.20
2018-11-05T10:06:29.991Z,98255.97
2018-11-05T10:09:04.260Z,98258.70
2018-11-05T10:20:09.123Z,98254.01
2018-11-05T10:22:42.595Z,98252.00
2018-11-05T10:28:22.895Z,98259.50
2018-11-05T10:34:51.610Z,98257.19
2018-11-05T10:49:56.160Z,98224.80
2018-11-05T10:52:35.411Z,98219.84
2018-11-05T11:00:55.767Z,98216.08
2018-11-05T11:03:28.686Z,98215.73
2018-11-05T11:08:49.751Z,98216.40
2018-11-05T11:11:36.506Z,98217.30
2018-11-05T11:16:40.387Z,98211.23
2018-11-05T11:19:15.653Z,98206.47
2018-11-05T11:21:56.357Z,98203.58
2018-11-05T11:24:35.352Z,98199.63
2018-11-05T11:27:03.828Z,98193.05
2018-11-05T11:29:32.447Z,98196.69
2018-11-05T11:32:00.760Z,98182.48
2018-11-05T11:34:29.081Z,98186.87
2018-11-05T11:36:57.448Z,98187.25
2018-11-05T11:39:25.965Z,98180.94
2018-11-05T11:44:48.799Z,98161.86
2018-11-05T11:50:02.593Z,98151.88
2018-11-05T11:52:30.977Z,98162.56
2018-11-05T11:54:59.410Z,98162.91
2018-11-05T11:57:27.854Z,98166.59
2018-11-05T11:59:56.183Z,98152.70
2018-11-05T12:02:24.526Z,98164.59
2018-11-05T12:04:52.934Z,98154.05
2018-11-05T12:07:21.251Z,98143.51
2018-11-05T12:09:49.641Z,98147.67
2018-11-05T12:12:19.069Z,98146.17
2018-11-05T12:14:47.539Z,98151.02
2018-11-05T12:17:15.721Z,98144.18
2018-11-05T12:19:44.035Z,98139.99
2018-11-05T12:22:12.404Z,98126.42
2018-11-05T12:24:40.766Z,98124.59
2018-11-05T12:27:09.076Z,98121.74
2018-11-05T12:29:37.387Z,98117.05
2018-11-05T12:32:06.061Z,98126.09
2018-11-05T12:34:34.380Z,98124.57
2018-11-05T12:37:02.679Z,98126.27
2018-11-05T12:39:31.215Z,98129.45
2018-11-05T12:41:59.491Z,98129.78
2018-11-05T12:44:27.811Z,98127.59
2018-11-05T12:46:56.120Z,98116.06
2018-11-05T12:49:24.782Z,98125.75
2018-11-05T12:51:53.188Z,98124.43
2018-11-05T12:54:21.508Z,98119.74
2018-11-05T12:56:49.807Z,98115.72
2018-11-05T12:59:18.118Z,98124.09
2018-11-05T13:01:46.394Z,98123.92
2018-11-05T13:04:14.969Z,98114.04
2018-11-05T13:06:43.219Z,98112.06
2018-11-05T13:09:11.518Z,98112.38
2018-11-05T13:11:39.849Z,98114.73
2018-11-05T13:14:08.163Z,98119.23
2018-11-05T13:16:36.519Z,98118.35
2018-11-05T13:19:04.848Z,98106.14
2018-11-05T13:21:33.178Z,98103.30
2018-11-05T13:24:01.534Z,98108.66
2018-11-05T13:26:29.866Z,98111.67
2018-11-05T13:28:58.410Z,98100.30
2018-11-05T13:31:26.912Z,98112.84
2018-11-05T13:33:55.270Z,98119.36
2018-11-05T13:36:23.608Z,98122.53
2018-11-05T13:38:52.376Z,98121.03
2018-11-05T13:41:20.707Z,98115.67
2018-11-05T13:43:49.085Z,98117.18
2018-11-05T13:46:17.740Z,98117.69
2018-11-05T13:48:46.363Z,98110.52
2018-11-05T13:51:14.167Z,98117.34
2018-11-05T13:53:42.706Z,98114.65
2018-11-05T13:56:11.012Z,98108.63
2018-11-05T13:58:39.469Z,98110.31
2018-11-05T14:01:07.785Z,98109.64
2018-11-05T14:03:36.369Z,98095.42
2018-11-05T14:06:05.174Z,98086.23
2018-11-05T14:08:33.561Z,98077.38
2018-11-05T14:11:01.994Z,98077.34
2018-11-05T14:13:30.338Z,98068.82
2018-11-05T14:15:58.814Z,98070.50
2018-11-05T14:18:27.264Z,98066.48
2018-11-05T14:20:55.656Z,98071.00
2018-11-05T14:23:23.979Z,98071.83
2018-11-05T14:25:52.314Z,98072.67
2018-11-05T14:28:20.890Z,98072.84
2018-11-05T14:30:48.944Z,98069.50
2018-11-05T14:33:17.250Z,98072.84
2018-11-05T14:35:45.728Z,98080.19
2018-11-05T14:38:14.036Z,98082.70
2018-11-05T14:40:42.375Z,98079.69
2018-11-05T14:43:10.767Z,98083.20
2018-11-05T14:45:39.063Z,98086.20
2018-11-05T14:48:07.452Z,98080.52
2018-11-05T14:50:36.437Z,98079.52
2018-11-05T14:53:04.812Z,98069.99
2018-11-05T14:55:33.225Z,98074.51
2018-11-05T14:58:01.605Z,98070.50
2018-11-05T15:00:35.590Z,98064.67
2018-11-05T15:03:03.976Z,98068.29
2018-11-05T15:05:32.299Z,98070.96
2018-11-05T15:08:00.581Z,98070.63
2018-11-05T15:10:28.927Z,98068.62
2018-11-05T15:12:57.330Z,98067.09
2018-11-05T15:15:25.696Z,98066.74
2018-11-05T15:17:53.980Z,98074.75
2018-11-05T15:20:23.306Z,98068.38
2018-11-05T15:22:51.611Z,98055.21
2018-11-05T15:25:20.575Z,98048.11
2018-11-05T15:27:48.910Z,98036.91
2018-11-05T15:30:18.667Z,98037.73
2018-11-05T15:32:47.095Z,98036.52
2018-11-05T15:35:15.661Z,98040.69
2018-11-05T15:37:44.372Z,98035.16
2018-11-05T15:40:14.596Z,98043.52
2018-11-05T15:42:42.940Z,98041.49
2018-11-05T15:45:12.595Z,98036.30
2018-11-05T15:47:41.378Z,98042.05
2018-11-05T15:50:11.984Z,98044.38
2018-11-05T15:52:40.590Z,98036.00
2018-11-05T15:55:08.790Z,98030.75
2018-11-05T15:57:38.042Z,98026.39
2018-11-05T16:00:13.416Z,98019.38
2018-11-05T16:02:41.827Z,98038.71
2018-11-05T16:05:10.223Z,98034.34
2018-11-05T16:07:38.558Z,98032.32
2018-11-05T16:10:07.996Z,98049.36
2018-11-05T16:12:36.888Z,98045.70
2018-11-05T16:15:06.090Z,98046.07
2018-11-05T16:17:34.468Z,98055.84
2018-11-05T16:20:02.837Z,98058.18
2018-11-05T16:22:31.142Z,98068.80
2018-11-05T16:24:59.824Z,98069.22
2018-11-05T16:27:28.132Z,98059.63
2018-11-05T16:29:56.576Z,98058.59
2018-11-05T16:32:25.516Z,98065.00
2018-11-05T16:34:54.067Z,98067.08
2018-11-05T16:37:22.345Z,98062.44
2018-11-05T16:39:50.792Z,98068.91
2018-11-05T16:42:19.031Z,98063.82
2018-11-05T16:44:47.363Z,98066.63
2018-11-05T16:47:15.742Z,98071.62
2018-11-05T16:49:44.151Z,98066.58
2018-11-05T16:52:12.692Z,98062.84
2018-11-05T16:54:41.028Z,98057.61
2018-11-05T16:57:09.750Z,98059.56
2018-11-05T16:59:38.108Z,98056.91
2018-11-05T17:02:13.508Z,98065.91
2018-11-05T17:04:42.196Z,98062.83
2018-11-05T17:07:16.487Z,98061.58
2018-11-05T17:09:45.126Z,98057.45
2018-11-05T17:12:13.871Z,98062.23
2018-11-05T17:14:42.398Z,98061.00
2018-11-05T17:17:12.221Z,98057.11
2018-11-05T17:19:40.654Z,98058.78
2018-11-05T17:22:10.087Z,98048.39
2018-11-05T17:24:38.620Z,98052.43
2018-11-05T17:27:07.582Z,98039.97
2018-11-05T17:29:36.004Z,98046.81
2018-11-05T17:32:04.382Z,98055.23
2018-11-05T17:34:32.713Z,98057.94
2018-11-05T17:37:01.057Z,98051.34
2018-11-05T17:39:29.496Z,98043.36
2018-11-05T17:41:57.823Z,98051.97
2018-11-05T17:44:26.185Z,98053.32
2018-11-05T17:46:54.935Z,98054.86
2018-11-05T17:49:23.425Z,98057.58
2018-11-05T17:51:51.862Z,98050.66
2018-11-05T17:54:20.503Z,98040.43
2018-11-05T17:56:49.123Z,98041.55
2018-11-05T17:59:17.536Z,98046.52
2018-11-05T18:01:45.874Z,98050.44
2018-11-05T18:04:15.309Z,98043.98
2018-11-05T18:06:43.860Z,98047.91
2018-11-05T18:09:12.696Z,98044.91
2018-11-05T18:11:41.427Z,98048.56
2018-11-05T18:14:10.372Z,98054.64
2018-11-05T18:19:57.592Z,98048.86
2018-11-05T18:22:26.331Z,98048.27
2018-11-05T18:24:55.004Z,98049.44
2018-11-05T18:27:24.401Z,98044.42
2018-11-05T18:29:53.213Z,98045.72
2018-11-05T18:32:22.605Z,98043.02
2018-11-05T18:34:52.307Z,98037.73
2018-11-05T18:37:21.121Z,98039.50
2018-11-05T18:39:50.517Z,98037.98
2018-11-05T18:42:18.884Z,98038.52
2018-11-05T18:44:47.610Z,98034.78
2018-11-05T18:47:16.616Z,98039.46
2018-11-05T18:49:46.880Z,98040.02
2018-11-05T18:52:15.261Z,98040.48
2018-11-05T18:54:43.928Z,98040.95
2018-11-05T18:57:14.104Z,98034.55
2018-11-05T18:59:42.894Z,98039.86
2018-11-05T19:02:15.802Z,98035.98
2018-11-05T19:04:44.115Z,98038.53
2018-11-05T19:07:13.700Z,98037.89
2018-11-05T19:09:42.191Z,98042.39
2018-11-05T19:12:10.671Z,98036.16
2018-11-05T19:14:39.128Z,98038.86
2018-11-05T19:17:08.625Z,98038.30
2018-11-05T19:19:37.983Z,98044.11
2018-11-05T19:22:06.821Z,98041.73
2018-11-05T19:24:36.051Z,98037.40
2018-11-05T19:27:04.647Z,98047.91
2018-11-05T19:29:33.174Z,98047.66
2018-11-05T19:32:02.041Z,98045.05
2018-11-05T19:34:30.512Z,98054.71
2018-11-05T19:36:59.510Z,98050.09
2018-11-05T19:39:27.898Z,98057.06
2018-11-05T19:41:56.359Z,98056.06
2018-11-05T19:44:24.661Z,98059.05
2018-11-05T19:46:53.163Z,98059.94
2018-11-05T19:49:21.519Z,98056.14
2018-11-05T19:51:49.888Z,98057.64
2018-11-05T19:54:18.220Z,98057.34
2018-11-05T19:56:46.578Z,98058.97
2018-11-05T19:59:14.950Z,98053.22
2018-11-05T20:01:43.614Z,98058.11
2018-11-05T20:04:12.298Z,98059.00
2018-11-05T20:06:40.667Z,98062.59
2018-11-05T20:09:09.207Z,98060.60
2018-11-05T20:11:37.919Z,98062.30
2018-11-05T20:14:06.445Z,98055.16
2018-11-05T20:16:35.035Z,98058.39
2018-11-05T20:19:03.654Z,98056.81
2018-11-05T20:21:32.007Z,98055.88
2018-11-05T20:24:00.710Z,98052.64
2018-11-05T20:26:29.480Z,98060.92
2018-11-05T20:28:58.029Z,98058.89
2018-11-05T20:31:26.620Z,98061.48
2018-11-05T20:33:55.027Z,98059.74
2018-11-05T20:36:23.285Z,98061.88
2018-11-05T20:38:51.791Z,98059.77
2018-11-05T20:41:20.131Z,98054.90
2018-11-05T20:43:48.838Z,98065.27
2018-11-05T20:46:17.213Z,98074.64
2018-11-05T20:48:45.562Z,98065.66
2018-11-05T20:51:14.133Z,98067.34
2018-11-05T20:53:42.877Z,98069.59
2018-11-05T20:56:11.328Z,98069.22
2018-11-05T20:58:39.726Z,98072.34
2018-11-05T21:01:08.473Z,98068.13
2018-11-05T21:03:36.728Z,98073.16
2018-11-05T21:06:06.497Z,98073.02
2018-11-05T21:08:34.896Z,98075.81
2018-11-05T21:11:03.413Z,98076.50
2018-11-05T21:13:31.996Z,98076.27
2018-11-05T21:16:00.595Z,98077.41
2018-11-05T21:18:29.098Z,98066.33
2018-11-05T21:20:57.494Z,98063.83
2018-11-05T21:23:25.836Z,98066.11
2018-11-05T21:25:54.205Z,98060.39
2018-11-05T21:28:22.586Z,98052.03
2018-11-05T21:30:51.012Z,98056.31
2018-11-05T21:33:19.456Z,98065.63
2018-11-05T21:35:47.762Z,98060.09
2018-11-05T21:38:16.082Z,98059.42
2018-11-05T21:40:44.470Z,98062.94
2018-11-05T21:43:12.849Z,98064.03
2018-11-05T21:45:43.060Z,98067.66
2018-11-05T21:48:11.638Z,98071.76
2018-11-05T21:50:39.988Z,98074.00
2018-11-05T21:53:08.622Z,98073.73
2018-11-05T21:55:36.951Z,98062.52
2018-11-05T21:58:05.511Z,98062.81
2018-11-05T22:00:33.822Z,98063.52
2018-11-05T22:03:05.102Z,98061.73
2018-11-05T22:05:33.410Z,98066.09
2018-11-05T22:08:01.763Z,98064.41
2018-11-05T22:10:30.065Z,98060.00
2018-11-05T22:12:58.550Z,98070.84
2018-11-05T22:15:31.090Z,98060.88
2018-11-05T22:17:59.962Z,98065.70
2018-11-05T22:20:28.330Z,98068.94
2018-11-05T22:22:56.639Z,98062.18
2018-11-05T22:25:24.934Z,98056.66
2018-11-05T22:27:53.355Z,98058.67
2018-11-05T22:30:23.522Z,98061.55
2018-11-05T22:32:51.849Z,98060.34
2018-11-05T22:35:20.207Z,98059.53
2018-11-05T22:37:48.502Z,98059.31
2018-11-05T22:40:16.845Z,98056.58
2018-11-05T22:42:45.151Z,98062.80
2018-11-05T22:45:14.647Z,98061.14
2018-11-05T22:47:43.610Z,98049.80
2018-11-05T22:50:11.965Z,98057.34
2018-11-05T22:52:40.875Z,98058.98
2018-11-05T22:55:09.726Z,98056.33
2018-11-05T22:57:38.140Z,98063.06
2018-11-05T23:00:16.749Z,98065.08
2018-11-05T23:02:50.566Z,98061.80
2018-11-05T23:05:19.080Z,98063.02
2018-11-05T23:07:47.363Z,98057.72
2018-11-05T23:10:15.739Z,98060.39
2018-11-05T23:12:44.015Z,98058.34
2018-11-05T23:15:12.461Z,98057.77
2018-11-05T23:17:40.743Z,98070.27
2018-11-05T23:20:09.763Z,98066.55
2018-11-05T23:22:40.609Z,98065.48
2018-11-05T23:25:10.977Z,98072.21
2018-11-05T23:27:39.340Z,98070.98
2018-11-05T23:30:09.946Z,98075.21
2018-11-05T23:32:39.439Z,98069.80
2018-11-05T23:35:08.752Z,98072.08
2018-11-05T23:37:37.997Z,98069.42
2018-11-05T23:40:07.014Z,98065.44
2018-11-05T23:42:35.489Z,98062.22
2018-11-05T23:45:04.002Z,98064.00
2018-11-05T23:47:32.341Z,98066.61
2018-11-05T23:50:00.650Z,98057.66
2018-11-05T23:52:29.599Z,98060.17
2018-11-05T23:54:57.899Z,98065.00
2018-11-05T23:57:26.171Z,98074.00
2018-11-05T23:59:54.474Z,98069.44
